Time;durP1;ratioP1;P1;durP2;ratioP2;P2;SDS_P1;SDS_P2;PMS_P1;PMS_P2;Temp;Humidity;BMP_temperature;BMP_pressure;BME280_temperature;BME280_humidity;BME280_pressure;Samples;Min_cycle;Max_cycle;Signal;HPM_P1;HPM_P2
2021/03/30 00:00:15;;;;;;;17.50;4.50;;;12.60;58.70;;;;;;4971238;28;20118;-80
2021/03/30 00:02:40;;;;;;;12.38;4.05;;;12.70;56.90;;;;;;4970131;28;20137;-79
2021/03/30 00:05:07;;;;;;;13.45;4.90;;;12.70;56.50;;;;;;4972777;28;20461;-79
2021/03/30 00:07:32;;;;;;;12.40;4.18;;;12.70;56.40;;;;;;4972239;28;20118;-80
2021/03/30 00:09:58;;;;;;;9.93;4.20;;;12.60;56.80;;;;;;4972357;28;20130;-80
2021/03/30 00:12:24;;;;;;;10.85;4.50;;;12.60;57.60;;;;;;4987250;28;20058;-81
2021/03/30 00:14:49;;;;;;;13.75;5.25;;;12.40;58.20;;;;;;4971696;28;20408;-80
2021/03/30 00:17:15;;;;;;;11.88;4.13;;;12.30;59.50;;;;;;4973580;28;20576;-80
2021/03/30 00:19:41;;;;;;;8.55;4.00;;;12.30;60.40;;;;;;4971759;28;20039;-81
2021/03/30 00:22:06;;;;;;;11.20;4.30;;;12.30;59.20;;;;;;4986919;28;20035;-81
2021/03/30 00:24:32;;;;;;;13.35;4.20;;;12.30;58.10;;;;;;4971781;28;20071;-80
2021/03/30 00:26:57;;;;;;;14.35;4.88;;;12.30;57.80;;;;;;4986716;28;20425;-80
2021/03/30 00:29:23;;;;;;;7.63;3.95;;;12.30;57.30;;;;;;4988550;28;20049;-80
2021/03/30 00:31:49;;;;;;;14.48;4.68;;;12.30;57.10;;;;;;4971466;28;20035;-79
2021/03/30 00:34:14;;;;;;;9.35;3.90;;;12.30;57.60;;;;;;4971559;28;20623;-79
2021/03/30 00:36:40;;;;;;;20.17;5.10;;;12.30;57.60;;;;;;4986601;28;20030;-80
2021/03/30 00:39:06;;;;;;;9.85;4.30;;;12.20;57.90;;;;;;4986686;28;20038;-79
2021/03/30 00:41:43;;;;;;;14.88;4.40;;;12.30;57.80;;;;;;4973249;28;20463;-81
2021/03/30 00:44:10;;;;;;;10.52;4.53;;;12.20;57.40;;;;;;4970565;28;20108;-80
2021/03/30 00:46:39;;;;;;;15.95;4.10;;;12.30;57.60;;;;;;4970053;28;20070;-81
2021/03/30 00:49:05;;;;;;;14.73;4.90;;;12.20;57.20;;;;;;4986631;28;20035;-79
2021/03/30 00:51:30;;;;;;;10.10;4.00;;;12.20;57.10;;;;;;4986652;28;20054;-81
2021/03/30 00:53:56;;;;;;;13.25;4.72;;;12.20;57.00;;;;;;4970147;28;20027;-81
2021/03/30 00:56:22;;;;;;;10.52;4.45;;;12.20;57.10;;;;;;4972889;28;20022;-79
2021/03/30 00:58:48;;;;;;;13.90;4.75;;;12.30;57.10;;;;;;4971255;28;20031;-79
2021/03/30 01:01:14;;;;;;;14.95;4.22;;;12.20;56.90;;;;;;4971085;28;20038;-83
2021/03/30 01:03:40;;;;;;;13.10;4.75;;;12.20;56.90;;;;;;4986856;28;20501;-83
2021/03/30 01:06:06;;;;;;;14.30;4.68;;;12.20;57.10;;;;;;4971971;28;20035;-83
2021/03/30 01:08:49;;;;;;;9.73;4.63;;;12.20;57.10;;;;;;4973323;28;20034;-83
2021/03/30 01:11:41;;;;;;;10.93;4.07;;;12.20;57.30;;;;;;4971953;28;20038;-82
2021/03/30 01:14:33;;;;;;;9.02;3.92;;;12.10;57.40;;;;;;4971294;28;20448;-82
2021/03/30 01:17:25;;;;;;;14.20;4.30;;;12.20;57.20;;;;;;4952980;28;20034;-81
2021/03/30 01:20:03;;;;;;;12.68;4.20;;;12.10;57.30;;;;;;4970307;28;20059;-82
2021/03/30 01:22:47;;;;;;;;;;;12.20;57.30;;;;;;4971913;28;20050;-84
2021/03/30 01:25:13;;;;;;;13.30;4.32;;;12.20;57.00;;;;;;4970176;28;20042;-82
2021/03/30 01:27:54;;;;;;;11.43;4.30;;;12.10;57.30;;;;;;4970537;28;20042;-83
2021/03/30 01:30:21;;;;;;;10.85;4.28;;;12.00;58.00;;;;;;4969631;28;20476;-80
2021/03/30 01:32:57;;;;;;;11.03;4.10;;;11.90;57.90;;;;;;4969848;28;20019;-80
2021/03/30 01:35:25;;;;;;;11.23;4.35;;;11.90;57.50;;;;;;4981286;28;20052;-82
2021/03/30 01:37:53;;;;;;;9.95;4.22;;;12.00;57.20;;;;;;5008426;28;20038;-81
2021/03/30 01:40:25;;;;;;;12.33;5.13;;;12.00;57.20;;;;;;5009909;28;20030;-80
2021/03/30 01:42:52;;;;;;;8.80;4.30;;;12.00;57.10;;;;;;5009477;28;20271;-80
2021/03/30 01:45:20;;;;;;;14.10;4.97;;;12.00;57.10;;;;;;5008329;28;20078;-80
2021/03/30 01:47:47;;;;;;;10.40;4.22;;;12.00;57.00;;;;;;5009176;28;20029;-81
2021/03/30 01:50:14;;;;;;;13.73;4.90;;;11.90;56.90;;;;;;5010199;28;20375;-79
2021/03/30 01:52:42;;;;;;;10.88;3.90;;;12.00;57.00;;;;;;5009591;28;20041;-80
2021/03/30 01:55:10;;;;;;;11.90;4.10;;;11.90;56.90;;;;;;5009352;28;20432;-80
2021/03/30 01:57:37;;;;;;;11.18;4.60;;;12.00;57.20;;;;;;5009514;28;20129;-78
2021/03/30 02:00:08;;;;;;;9.48;3.83;;;11.90;57.70;;;;;;5009468;28;20052;-78
2021/03/30 02:02:36;;;;;;;10.82;4.72;;;11.80;58.20;;;;;;5010164;28;20030;-79
2021/03/30 02:05:03;;;;;;;11.45;4.20;;;11.70;58.50;;;;;;5009296;28;20097;-79
2021/03/30 02:07:30;;;;;;;17.92;5.35;;;11.70;58.50;;;;;;5009360;28;20401;-78
2021/03/30 02:10:03;;;;;;;13.40;4.32;;;11.60;58.80;;;;;;5009394;28;20026;-79
2021/03/30 02:12:35;;;;;;;10.77;4.35;;;11.60;59.10;;;;;;5009479;28;20053;-78
2021/03/30 02:15:01;;;;;;;11.75;4.22;;;11.50;59.80;;;;;;5007770;28;20470;-79
2021/03/30 02:17:35;;;;;;;11.07;4.32;;;11.50;59.60;;;;;;5010971;28;20049;-79
2021/03/30 02:20:23;;;;;;;11.77;4.75;;;11.50;59.10;;;;;;5009674;28;20038;-79
2021/03/30 02:22:55;;;;;;;9.20;4.13;;;11.70;58.50;;;;;;5007847;28;20038;-79
2021/03/30 02:25:22;;;;;;;10.15;4.30;;;11.60;58.10;;;;;;5009356;28;20031;-80
2021/03/30 02:27:50;;;;;;;9.30;3.83;;;11.60;58.00;;;;;;5011407;28;20524;-80
2021/03/30 02:30:18;;;;;;;10.93;4.20;;;11.60;58.20;;;;;;5012908;28;20030;-79
2021/03/30 02:32:46;;;;;;;11.18;4.13;;;11.60;58.40;;;;;;5012674;28;20095;-78
2021/03/30 02:35:13;;;;;;;;;;;11.60;58.20;;;;;;5014852;28;20029;-79
2021/03/30 02:37:40;;;;;;;13.70;4.47;;;11.50;58.20;;;;;;5012572;28;20019;-79
2021/03/30 02:40:09;;;;;;;10.77;4.72;;;11.50;58.30;;;;;;5012753;28;20038;-80
2021/03/30 02:42:36;;;;;;;11.55;4.63;;;11.50;58.50;;;;;;5012730;28;20030;-79
2021/03/30 02:45:04;;;;;;;8.77;4.20;;;11.50;58.40;;;;;;5012926;28;20045;-79
2021/03/30 02:47:31;;;;;;;12.85;4.22;;;11.50;58.70;;;;;;5014443;28;20029;-80
2021/03/30 02:49:57;;;;;;;10.95;4.50;;;11.50;58.60;;;;;;5011582;28;20030;-80
2021/03/30 02:52:24;;;;;;;13.35;3.97;;;11.50;58.70;;;;;;5012374;28;20037;-79
2021/03/30 02:54:50;;;;;;;12.30;4.47;;;11.50;59.00;;;;;;5012781;28;20449;-79
2021/03/30 02:57:17;;;;;;;8.05;4.55;;;11.50;59.30;;;;;;5012883;28;20266;-79
2021/03/30 02:59:44;;;;;;;13.43;4.80;;;11.50;59.40;;;;;;5012129;28;20117;-80
2021/03/30 03:02:13;;;;;;;8.50;4.35;;;11.40;59.50;;;;;;5013229;28;20038;-81
2021/03/30 03:04:39;;;;;;;8.70;4.68;;;11.40;60.00;;;;;;5011343;28;20045;-80
2021/03/30 03:07:05;;;;;;;16.35;5.07;;;11.40;60.20;;;;;;5012063;28;20574;-79
2021/03/30 03:09:33;;;;;;;20.90;5.80;;;11.30;60.90;;;;;;5011995;28;20058;-81
2021/03/30 03:11:59;;;;;;;15.98;5.53;;;11.30;61.20;;;;;;5011938;28;20025;-80
2021/03/30 03:14:26;;;;;;;15.80;4.95;;;11.30;61.70;;;;;;5012447;28;20113;-80
2021/03/30 03:16:53;;;;;;;10.10;4.78;;;11.20;61.60;;;;;;5010569;28;20050;-80
2021/03/30 03:19:21;;;;;;;9.57;4.72;;;11.20;61.10;;;;;;5012251;28;20061;-79
2021/03/30 03:21:48;;;;;;;15.52;5.18;;;11.20;60.80;;;;;;5012389;28;20030;-79
2021/03/30 03:24:14;;;;;;;13.13;5.22;;;11.30;60.50;;;;;;5011790;28;20037;-80
2021/03/30 03:26:40;;;;;;;9.48;4.63;;;11.20;60.50;;;;;;5012332;28;20042;-79
2021/03/30 03:29:18;;;;;;;11.95;4.88;;;11.20;61.30;;;;;;5012764;28;20517;-83
2021/03/30 03:31:44;;;;;;;11.93;4.75;;;11.20;61.30;;;;;;5011002;28;20133;-84
2021/03/30 03:34:17;;;;;;;8.90;5.45;;;11.10;60.60;;;;;;5011042;28;20387;-81
2021/03/30 03:36:45;;;;;;;15.48;5.50;;;11.20;60.50;;;;;;5010837;28;20054;-82
2021/03/30 03:39:13;;;;;;;8.23;4.93;;;11.20;60.40;;;;;;5011863;28;20037;-81
2021/03/30 03:41:41;;;;;;;12.90;5.30;;;11.30;60.50;;;;;;5012534;28;20038;-80
2021/03/30 03:44:09;;;;;;;;;;;11.20;60.10;;;;;;5011447;28;20124;-81
2021/03/30 03:46:35;;;;;;;12.13;5.03;;;11.20;60.10;;;;;;5010378;28;20334;-81
2021/03/30 03:49:02;;;;;;;9.88;4.75;;;11.20;60.40;;;;;;5010336;28;20475;-80
2021/03/30 03:51:32;;;;;;;19.77;5.60;;;11.20;60.00;;;;;;5011507;28;20092;-81
2021/03/30 03:54:00;;;;;;;10.73;5.25;;;11.20;60.00;;;;;;5011227;28;20505;-81
2021/03/30 03:56:30;;;;;;;11.70;5.00;;;11.10;60.00;;;;;;5013067;28;20018;-81
2021/03/30 03:59:00;;;;;;;11.95;5.63;;;11.20;60.20;;;;;;5011447;28;20030;-82
2021/03/30 04:01:50;;;;;;;13.45;5.78;;;11.30;60.20;;;;;;5010170;28;20045;-80
2021/03/30 04:04:30;;;;;;;10.52;5.40;;;11.30;60.20;;;;;;5003112;28;20042;-80
2021/03/30 04:07:00;;;;;;;16.20;5.75;;;11.30;60.10;;;;;;5010175;28;20037;-80
2021/03/30 04:09:26;;;;;;;12.90;6.10;;;11.40;60.70;;;;;;5011217;28;20376;-80
2021/03/30 04:11:54;;;;;;;15.93;5.55;;;11.30;60.80;;;;;;5010834;28;20044;-80
2021/03/30 04:14:20;;;;;;;11.95;5.78;;;11.30;60.90;;;;;;5013161;28;20026;-81
2021/03/30 04:16:47;;;;;;;74.07;10.98;;;11.40;60.90;;;;;;5014234;28;20460;-81
2021/03/30 04:19:14;;;;;;;23.10;7.50;;;11.30;61.00;;;;;;5011715;28;20045;-80
2021/03/30 04:21:40;;;;;;;11.40;5.80;;;11.30;60.50;;;;;;5009982;28;20196;-78
2021/03/30 04:24:08;;;;;;;13.70;6.85;;;11.30;60.40;;;;;;5010999;28;20117;-79
2021/03/30 04:26:38;;;;;;;17.30;6.10;;;11.30;60.40;;;;;;5011317;28;20026;-79
2021/03/30 04:29:04;;;;;;;13.30;6.28;;;11.30;60.50;;;;;;5011137;28;20037;-78
2021/03/30 04:31:30;;;;;;;16.05;6.35;;;11.30;60.60;;;;;;5010816;28;20448;-79
2021/03/30 04:33:56;;;;;;;14.52;6.25;;;11.30;60.80;;;;;;5010550;28;20448;-79
2021/03/30 04:36:22;;;;;;;13.25;5.72;;;11.20;60.90;;;;;;5010442;28;20052;-78
2021/03/30 04:38:47;;;;;;;13.88;6.40;;;11.20;61.10;;;;;;5010648;28;20026;-80
2021/03/30 04:41:13;;;;;;;17.23;6.78;;;11.10;60.90;;;;;;5012442;28;20112;-80
2021/03/30 04:43:39;;;;;;;12.35;5.88;;;11.10;61.00;;;;;;5010634;28;20104;-80
2021/03/30 04:46:09;;;;;;;13.20;5.68;;;11.10;61.40;;;;;;5010386;28;20092;-80
2021/03/30 04:48:35;;;;;;;20.80;6.47;;;11.10;61.50;;;;;;5009212;28;20404;-80
2021/03/30 04:51:01;;;;;;;12.95;5.60;;;11.10;61.50;;;;;;5010297;28;20044;-79
2021/03/30 04:53:27;;;;;;;17.13;7.03;;;11.00;62.60;;;;;;5011841;28;20086;-81
2021/03/30 04:55:54;;;;;;;11.30;6.47;;;11.00;63.00;;;;;;5010128;28;20040;-81
2021/03/30 04:58:20;;;;;;;11.45;6.10;;;10.90;63.60;;;;;;5010183;28;20124;-79
2021/03/30 05:00:46;;;;;;;9.90;6.18;;;10.90;63.20;;;;;;5010398;28;20125;-79
2021/03/30 05:03:11;;;;;;;13.10;6.18;;;10.90;62.80;;;;;;5010383;28;20037;-79
2021/03/30 05:05:37;;;;;;;14.88;6.95;;;10.90;62.80;;;;;;5010719;28;20022;-79
2021/03/30 05:08:03;;;;;;;13.68;6.45;;;11.00;62.70;;;;;;5008495;28;20038;-79
2021/03/30 05:10:29;;;;;;;13.55;6.38;;;11.00;62.70;;;;;;5009884;28;20030;-79
2021/03/30 05:12:55;;;;;;;14.52;7.35;;;11.10;62.70;;;;;;5010310;28;20048;-79
2021/03/30 05:15:20;;;;;;;11.90;6.80;;;11.10;62.40;;;;;;5009484;28;20121;-79
2021/03/30 05:17:46;;;;;;;17.75;6.72;;;11.20;63.20;;;;;;5008309;28;20511;-81
2021/03/30 05:20:12;;;;;;;22.10;7.65;;;11.10;64.20;;;;;;5011469;28;20021;-80
2021/03/30 05:22:38;;;;;;;21.75;6.95;;;11.00;65.10;;;;;;5010194;28;20041;-80
2021/03/30 05:25:08;;;;;;;19.52;6.60;;;11.00;65.20;;;;;;5009822;28;20099;-80
2021/03/30 05:27:35;;;;;;;18.25;6.53;;;11.00;65.20;;;;;;5009686;28;20172;-79
2021/03/30 05:30:00;;;;;;;18.73;6.85;;;10.90;65.20;;;;;;5009915;28;20125;-81
2021/03/30 05:32:26;;;;;;;18.20;6.90;;;10.90;64.80;;;;;;5010470;28;20128;-80
2021/03/30 05:34:53;;;;;;;18.35;7.38;;;11.00;64.90;;;;;;5010117;28;20456;-81
2021/03/30 05:37:18;;;;;;;13.00;6.50;;;11.00;64.70;;;;;;5009826;28;20058;-81
2021/03/30 05:39:44;;;;;;;14.60;7.20;;;11.10;64.50;;;;;;5008239;28;20077;-81
2021/03/30 05:42:14;;;;;;;18.45;7.30;;;11.10;64.30;;;;;;5009594;28;20044;-81
2021/03/30 05:44:41;;;;;;;17.10;7.40;;;11.20;64.20;;;;;;4995104;28;20034;-83
2021/03/30 05:49:40;;;;;;;14.30;6.50;;;11.30;63.80;;;;;;4991490;28;20801;-81
2021/03/30 05:52:32;;;;;;;18.27;7.20;;;11.40;63.60;;;;;;4990592;28;20049;-84
2021/03/30 05:54:59;;;;;;;20.95;8.23;;;11.50;63.50;;;;;;4990827;28;20101;-79
2021/03/30 05:57:28;;;;;;;19.20;7.95;;;11.60;63.20;;;;;;4992143;28;20045;-82
2021/03/30 05:59:56;;;;;;;16.98;7.50;;;11.60;63.60;;;;;;4992444;28;20101;-82
2021/03/30 06:02:23;;;;;;;19.50;7.50;;;11.60;63.60;;;;;;4997681;28;20019;-82
2021/03/30 06:04:49;;;;;;;20.17;8.43;;;11.60;63.50;;;;;;5014092;28;20030;-85
2021/03/30 06:07:16;;;;;;;17.55;7.57;;;11.70;63.60;;;;;;4998938;28;20419;-86
2021/03/30 06:09:46;;;;;;;17.02;7.80;;;11.70;63.70;;;;;;4999505;28;20131;-86
2021/03/30 06:12:14;;;;;;;20.42;9.18;;;11.70;64.10;;;;;;5000364;28;20049;-86
2021/03/30 06:14:45;;;;;;;20.20;7.70;;;11.80;63.80;;;;;;4999944;28;20022;-87
2021/03/30 06:17:13;;;;;;;17.77;6.43;;;11.90;63.70;;;;;;4998719;28;20065;-86
2021/03/30 06:19:56;;;;;;;16.00;8.63;;;11.90;63.80;;;;;;4998764;28;20038;-87
2021/03/30 06:22:24;;;;;;;19.65;8.00;;;12.00;63.80;;;;;;4999075;28;20030;-89
2021/03/30 06:24:53;;;;;;;22.75;8.82;;;12.10;63.80;;;;;;4999610;28;20030;-87
2021/03/30 06:27:27;;;;;;;17.73;8.77;;;12.20;62.80;;;;;;4996130;28;20038;-86
2021/03/30 06:29:56;;;;;;;24.80;9.13;;;12.30;62.50;;;;;;4996338;28;20018;-87
2021/03/30 06:32:25;;;;;;;22.55;9.45;;;12.40;62.70;;;;;;4997802;28;20023;-85
2021/03/30 06:34:57;;;;;;;24.90;10.90;;;12.50;62.50;;;;;;4995526;28;20224;-85
2021/03/30 06:37:30;;;;;;;26.25;9.43;;;12.50;61.90;;;;;;4994666;28;20085;-84
2021/03/30 06:40:05;;;;;;;23.95;9.10;;;12.60;61.90;;;;;;4996351;28;20069;-78
2021/03/30 06:42:49;;;;;;;29.63;10.07;;;12.70;61.10;;;;;;4993829;28;20026;-83
2021/03/30 06:45:26;;;;;;;32.25;10.07;;;12.80;60.80;;;;;;4995400;28;20125;-83
2021/03/30 06:47:55;;;;;;;31.48;10.55;;;12.90;60.90;;;;;;4996166;28;20018;-87
2021/03/30 06:50:26;;;;;;;33.85;10.02;;;13.00;60.20;;;;;;4996343;28;20022;-85
2021/03/30 06:52:51;;;;;;;30.10;10.05;;;13.10;59.90;;;;;;4995750;28;20448;-82
2021/03/30 06:55:29;;;;;;;32.35;10.93;;;13.20;60.10;;;;;;4996767;28;20057;-87
2021/03/30 06:58:03;;;;;;;26.02;9.48;;;13.30;60.00;;;;;;4996679;28;20042;-86
2021/03/30 07:00:34;;;;;;;24.38;9.23;;;13.40;59.60;;;;;;4995382;28;20046;-83
2021/03/30 07:03:05;;;;;;;21.95;9.27;;;13.40;59.40;;;;;;4994521;28;20149;-83
2021/03/30 07:05:39;;;;;;;29.27;11.18;;;13.50;59.50;;;;;;4994757;28;20092;-83
2021/03/30 07:08:07;;;;;;;27.88;10.90;;;13.60;59.00;;;;;;4994178;28;20444;-84
2021/03/30 07:10:54;;;;;;;25.17;11.30;;;13.70;58.50;;;;;;4994487;28;20042;-86
2021/03/30 07:13:22;;;;;;;23.90;11.25;;;13.80;58.30;;;;;;4992855;28;20042;-88
2021/03/30 07:16:08;;;;;;;;;;;13.90;58.10;;;;;;4994595;28;20133;-86
2021/03/30 07:18:46;;;;;;;29.65;11.45;;;14.00;57.90;;;;;;4997753;28;19922;-85
2021/03/30 07:21:21;;;;;;;27.92;10.80;;;14.10;57.60;;;;;;4994679;28;20030;-83
2021/03/30 07:23:56;;;;;;;26.60;11.43;;;14.20;57.60;;;;;;4992282;28;20058;-86
2021/03/30 07:26:28;;;;;;;23.63;10.30;;;14.30;57.70;;;;;;4996336;28;20026;-88
2021/03/30 07:29:11;;;;;;;27.80;10.63;;;14.30;57.50;;;;;;4994757;28;20046;-86
2021/03/30 07:31:58;;;;;;;30.73;10.77;;;14.40;57.50;;;;;;4996537;28;20046;-89
2021/03/30 07:35:04;;;;;;;21.27;10.35;;;14.50;57.70;;;;;;4996072;28;20034;-86
2021/03/30 07:37:33;;;;;;;25.08;10.63;;;14.60;57.30;;;;;;4994267;28;20042;-82
2021/03/30 07:40:00;;;;;;;23.50;11.25;;;14.70;57.50;;;;;;4994874;28;20034;-88
2021/03/30 07:42:27;;;;;;;28.77;10.93;;;14.80;57.20;;;;;;4994443;28;20030;-83
2021/03/30 07:44:54;;;;;;;22.17;11.43;;;14.80;56.90;;;;;;4994064;28;20035;-87
2021/03/30 07:47:21;;;;;;;27.45;11.63;;;14.90;56.80;;;;;;4996903;28;20022;-89
2021/03/30 07:49:51;;;;;;;31.95;11.98;;;15.00;56.60;;;;;;4994280;28;20034;-86
2021/03/30 07:52:26;;;;;;;27.35;10.98;;;15.10;56.50;;;;;;4996292;28;20065;-90
2021/03/30 07:55:17;;;;;;;24.83;10.50;;;15.10;55.50;;;;;;4998726;28;20121;-88
2021/03/30 07:58:13;;;;;;;23.90;10.90;;;15.30;55.50;;;;;;4996595;28;20049;-81
2021/03/30 08:00:38;;;;;;;25.58;9.80;;;15.40;53.20;;;;;;4996393;28;20361;-82
2021/03/30 08:03:09;;;;;;;23.13;10.45;;;15.50;53.50;;;;;;4995010;28;20027;-83
2021/03/30 08:05:35;;;;;;;27.98;10.40;;;15.60;53.10;;;;;;4998113;28;20014;-89
2021/03/30 08:08:22;;;;;;;21.45;10.02;;;15.70;52.70;;;;;;4994983;28;20047;-87
2021/03/30 08:10:51;;;;;;;21.77;10.30;;;15.80;51.80;;;;;;4994315;28;20034;-85
2021/03/30 08:13:28;;;;;;;23.45;9.75;;;15.90;51.30;;;;;;4995161;28;20114;-88
2021/03/30 08:16:03;;;;;;;24.23;9.32;;;16.00;50.90;;;;;;4997050;28;20113;-86
2021/03/30 08:18:34;;;;;;;27.05;10.30;;;16.10;50.70;;;;;;4995254;28;20022;-87
2021/03/30 08:21:00;;;;;;;25.17;9.48;;;16.10;50.50;;;;;;4998976;28;20031;-88
2021/03/30 08:23:28;;;;;;;22.25;9.20;;;16.20;50.90;;;;;;4996547;28;20046;-86
2021/03/30 08:26:14;;;;;;;23.92;10.57;;;16.30;51.20;;;;;;4996544;28;20093;-85
2021/03/30 08:28:56;;;;;;;23.88;9.20;;;16.50;50.80;;;;;;4994178;28;20121;-86
2021/03/30 08:31:33;;;;;;;24.30;9.05;;;16.80;50.90;;;;;;4995610;28;20034;-90
2021/03/30 08:34:04;;;;;;;18.10;9.45;;;17.50;50.20;;;;;;4996249;28;20030;-90
2021/03/30 08:36:43;;;;;;;20.85;9.57;;;18.50;50.50;;;;;;4995397;28;20096;-86
2021/03/30 08:39:20;;;;;;;34.90;9.88;;;19.20;49.00;;;;;;4993603;28;20041;-87
2021/03/30 08:41:53;;;;;;;21.73;9.05;;;20.30;49.10;;;;;;4992771;28;20044;-88
2021/03/30 08:44:28;;;;;;;26.40;8.85;;;21.40;46.00;;;;;;4995288;28;20122;-85
2021/03/30 08:46:56;;;;;;;22.33;9.35;;;21.70;43.30;;;;;;4993259;28;20065;-86
2021/03/30 08:49:25;;;;;;;30.42;16.73;;;22.60;42.90;;;;;;4994355;28;20042;-85
2021/03/30 08:52:03;;;;;;;25.55;9.98;;;23.40;42.60;;;;;;4992327;28;20038;-85
2021/03/30 08:54:34;;;;;;;24.23;9.18;;;23.70;41.00;;;;;;4993379;28;20038;-81
2021/03/30 08:57:11;;;;;;;18.52;8.23;;;24.50;39.90;;;;;;4991870;28;20042;-81
2021/03/30 08:59:39;;;;;;;25.38;8.73;;;24.80;38.60;;;;;;4993837;28;20022;-84
2021/03/30 09:02:07;;;;;;;17.15;8.95;;;24.90;38.20;;;;;;4991707;28;20121;-83
2021/03/30 09:04:36;;;;;;;24.02;9.32;;;25.70;37.50;;;;;;4991651;28;20034;-82
2021/03/30 09:07:02;;;;;;;19.85;9.07;;;26.00;37.30;;;;;;4989321;28;20523;-79
2021/03/30 09:09:36;;;;;;;21.35;8.80;;;26.50;36.20;;;;;;4990493;28;20030;-80
2021/03/30 09:12:07;;;;;;;18.58;7.90;;;27.10;35.60;;;;;;4990297;28;20041;-81
2021/03/30 09:14:33;;;;;;;18.33;8.85;;;27.40;34.50;;;;;;4991763;28;20027;-79
2021/03/30 09:17:06;;;;;;;22.75;9.63;;;28.00;33.10;;;;;;4990393;28;20081;-80
2021/03/30 09:19:49;;;;;;;23.00;9.52;;;27.70;31.50;;;;;;4990521;28;20093;-78
2021/03/30 09:22:24;;;;;;;20.65;8.63;;;28.10;31.80;;;;;;4990156;28;20034;-81
2021/03/30 09:27:23;;;;;;;20.40;9.32;;;29.00;31.40;;;;;;4990866;28;20034;-85
2021/03/30 09:29:53;;;;;;;17.70;8.65;;;29.70;30.40;;;;;;4991270;28;20098;-84
2021/03/30 09:32:19;;;;;;;17.42;9.18;;;29.90;30.90;;;;;;4991261;28;20065;-84
2021/03/30 09:34:45;;;;;;;23.83;9.35;;;30.60;30.10;;;;;;4990739;28;20042;-84
2021/03/30 09:37:11;;;;;;;24.08;9.55;;;30.90;29.80;;;;;;4990680;28;20049;-86
2021/03/30 09:39:37;;;;;;;17.02;9.02;;;31.10;29.20;;;;;;4991586;28;20026;-83
2021/03/30 09:42:04;;;;;;;17.48;9.60;;;31.20;28.70;;;;;;4990926;28;20029;-85
2021/03/30 09:44:45;;;;;;;22.17;10.45;;;30.60;29.30;;;;;;4979311;28;20031;-85
2021/03/30 09:47:15;;;;;;;18.23;9.35;;;31.30;28.80;;;;;;4987524;28;20461;-87
2021/03/30 09:49:42;;;;;;;23.02;10.68;;;32.10;28.70;;;;;;4987178;28;20606;-84
2021/03/30 09:52:09;;;;;;;23.52;10.80;;;32.60;27.70;;;;;;4972269;28;20385;-86
2021/03/30 09:54:40;;;;;;;21.50;10.50;;;31.90;27.40;;;;;;4987968;28;20049;-85
2021/03/30 09:57:21;;;;;;;21.35;11.30;;;32.20;27.50;;;;;;4972701;28;20058;-82
2021/03/30 09:59:50;;;;;;;21.13;10.32;;;32.90;27.80;;;;;;4986630;28;20046;-83
2021/03/30 10:02:22;;;;;;;20.95;10.07;;;33.90;27.10;;;;;;4973194;28;20315;-81
2021/03/30 10:05:07;;;;;;;24.25;10.05;;;33.50;27.10;;;;;;4971835;28;20070;-83
2021/03/30 10:07:38;;;;;;;24.58;11.27;;;32.70;26.70;;;;;;4970994;28;20460;-86
2021/03/30 10:10:07;;;;;;;22.60;10.88;;;33.50;27.10;;;;;;4970958;28;20050;-82
2021/03/30 10:12:38;;;;;;;21.50;10.45;;;33.60;27.00;;;;;;4970990;28;20038;-85
2021/03/30 10:15:06;;;;;;;26.08;10.90;;;34.30;26.80;;;;;;4971395;28;20422;-83
2021/03/30 10:17:31;;;;;;;;;;;34.10;26.30;;;;;;4992791;28;20054;-84
2021/03/30 10:19:59;;;;;;;14.80;8.10;;;33.70;26.60;;;;;;4987341;28;20001;-84
2021/03/30 10:22:31;;;;;;;;;;;33.70;26.80;;;;;;4972635;28;20475;-84
2021/03/30 10:25:16;;;;;;;21.95;10.15;;;33.30;26.40;;;;;;4987105;28;19910;-86
2021/03/30 10:27:50;;;;;;;19.73;9.77;;;32.90;26.60;;;;;;4970305;28;20054;-85
2021/03/30 10:30:16;;;;;;;19.33;10.55;;;33.20;27.20;;;;;;4986492;28;20045;-83
2021/03/30 10:32:50;;;;;;;22.20;10.77;;;33.00;26.90;;;;;;4985055;28;20043;-81
2021/03/30 10:35:17;;;;;;;24.15;10.48;;;33.60;27.20;;;;;;4971911;28;20027;-81
2021/03/30 10:37:44;;;;;;;17.50;9.40;;;33.40;27.10;;;;;;4970461;28;20027;-80
2021/03/30 10:40:11;;;;;;;19.70;10.07;;;33.20;27.20;;;;;;4970809;28;20066;-79
2021/03/30 10:42:40;;;;;;;23.35;10.00;;;32.60;27.50;;;;;;4970654;28;20097;-81
2021/03/30 10:45:11;;;;;;;19.00;9.68;;;33.70;27.10;;;;;;4985154;28;20041;-82
2021/03/30 10:47:40;;;;;;;20.83;9.93;;;33.80;27.20;;;;;;4973169;28;20019;-82
2021/03/30 10:50:13;;;;;;;26.58;13.27;;;34.70;25.90;;;;;;4974017;28;20031;-80
2021/03/30 10:52:39;;;;;;;20.80;9.88;;;33.60;25.90;;;;;;4973649;28;20066;-84
2021/03/30 10:55:17;;;;;;;23.38;14.65;;;33.90;25.80;;;;;;4973511;28;20046;-83
2021/03/30 10:57:46;;;;;;;20.63;10.63;;;33.30;26.60;;;;;;4973289;28;20037;-77
2021/03/30 11:00:13;;;;;;;23.00;15.30;;;33.50;26.70;;;;;;4973610;28;20030;-87
2021/03/30 11:02:39;;;;;;;22.75;11.93;;;33.60;25.80;;;;;;4975632;28;20027;-82
2021/03/30 11:05:07;;;;;;;26.00;13.75;;;32.90;26.70;;;;;;4974138;28;20039;-80
2021/03/30 11:07:33;;;;;;;21.58;10.13;;;33.60;26.50;;;;;;4974277;28;20086;-84
2021/03/30 11:09:59;;;;;;;18.85;9.35;;;32.50;26.50;;;;;;4973257;28;20189;-85
2021/03/30 11:12:25;;;;;;;31.70;14.35;;;33.00;26.60;;;;;;4988853;28;20073;-83
2021/03/30 11:14:50;;;;;;;19.67;10.50;;;33.80;26.30;;;;;;4992269;28;20121;-81
2021/03/30 11:17:16;;;;;;;22.20;9.45;;;32.40;25.80;;;;;;4994956;28;20038;-80
2021/03/30 11:19:42;;;;;;;18.05;10.02;;;33.30;25.90;;;;;;4993001;28;20034;-80
2021/03/30 11:22:09;;;;;;;19.67;10.45;;;33.30;26.20;;;;;;4993170;28;20038;-80
2021/03/30 11:24:40;;;;;;;38.58;10.80;;;32.00;26.30;;;;;;4993840;28;20565;-82
2021/03/30 11:27:07;;;;;;;18.58;10.02;;;32.40;26.20;;;;;;4993729;28;20046;-85
2021/03/30 11:39:38;;;;;;;17.83;10.10;;;30.60;27.30;;;;;;4990617;28;20045;-83
2021/03/30 11:42:05;;;;;;;19.38;10.30;;;30.60;27.20;;;;;;4994885;28;20038;-80
2021/03/30 11:44:31;;;;;;;19.02;9.75;;;30.80;27.10;;;;;;4995985;28;20043;-86
2021/03/30 11:46:59;;;;;;;18.80;9.27;;;29.70;27.60;;;;;;4995680;28;20064;-84
2021/03/30 11:49:25;;;;;;;18.15;9.13;;;28.80;28.40;;;;;;4994073;28;20518;-85
2021/03/30 11:51:52;;;;;;;26.13;10.25;;;28.50;28.90;;;;;;4994987;28;20031;-82
2021/03/30 11:54:18;;;;;;;19.27;8.98;;;28.10;29.10;;;;;;4994860;28;20042;-87
2021/03/30 11:56:44;;;;;;;24.00;10.32;;;27.80;29.60;;;;;;4995427;28;20077;-87
2021/03/30 11:59:09;;;;;;;19.75;9.32;;;27.00;29.80;;;;;;4997001;28;20026;-84
2021/03/30 12:01:35;;;;;;;23.38;8.80;;;26.70;30.60;;;;;;4995124;28;20103;-85
2021/03/30 12:04:01;;;;;;;19.25;9.18;;;26.60;30.70;;;;;;4993752;28;20411;-83
2021/03/30 12:06:27;;;;;;;17.17;8.45;;;26.50;30.70;;;;;;4993716;28;20046;-82
2021/03/30 12:08:52;;;;;;;19.35;8.10;;;26.30;30.50;;;;;;4993331;28;20022;-82
2021/03/30 12:11:18;;;;;;;21.73;8.15;;;25.80;30.00;;;;;;4996543;28;20021;-83
2021/03/30 12:13:44;;;;;;;20.33;8.13;;;25.80;30.40;;;;;;4994388;28;20038;-84
2021/03/30 12:16:09;;;;;;;18.98;8.68;;;25.60;31.30;;;;;;4992032;28;20082;-85
2021/03/30 12:18:35;;;;;;;17.17;8.48;;;25.50;30.90;;;;;;4992667;28;20034;-79
2021/03/30 12:21:01;;;;;;;17.60;8.10;;;25.50;30.50;;;;;;4992169;28;20519;-90
2021/03/30 12:23:27;;;;;;;21.58;8.52;;;25.60;30.70;;;;;;4994889;28;20076;-83
2021/03/30 12:25:53;;;;;;;25.92;8.82;;;25.50;30.50;;;;;;4993551;28;20088;-78
2021/03/30 12:28:19;;;;;;;21.30;9.10;;;25.30;30.60;;;;;;4991761;28;20030;-85
2021/03/30 12:30:45;;;;;;;23.73;9.32;;;25.30;31.00;;;;;;4995084;28;20034;-88
2021/03/30 12:33:12;;;;;;;23.17;8.73;;;25.10;31.20;;;;;;4994957;28;20039;-83
2021/03/30 12:35:38;;;;;;;21.02;8.38;;;25.20;31.60;;;;;;4996121;28;20113;-85
2021/03/30 12:38:04;;;;;;;19.35;8.20;;;25.20;30.60;;;;;;4993315;28;20114;-84
2021/03/30 12:40:30;;;;;;;14.77;7.35;;;25.20;30.00;;;;;;4994190;28;20053;-86
2021/03/30 12:42:55;;;;;;;18.02;6.30;;;25.00;29.90;;;;;;4993116;28;20037;-83
2021/03/30 12:45:21;;;;;;;14.10;7.45;;;25.10;30.00;;;;;;4991966;28;20444;-85
2021/03/30 12:47:47;;;;;;;14.32;7.07;;;24.90;29.80;;;;;;4993442;28;20360;-80
2021/03/30 12:50:14;;;;;;;15.20;7.53;;;24.90;30.10;;;;;;4995597;28;20351;-83
2021/03/30 12:52:40;;;;;;;13.38;6.95;;;24.80;29.40;;;;;;4992635;28;20034;-82
2021/03/30 12:55:07;;;;;;;17.80;7.18;;;24.70;29.10;;;;;;4991838;28;20038;-83
2021/03/30 12:57:36;;;;;;;23.15;9.15;;;24.50;28.10;;;;;;4996080;28;20065;-85
2021/03/30 13:00:05;;;;;;;14.98;6.97;;;24.40;28.50;;;;;;5013513;28;20046;-79
2021/03/30 13:02:31;;;;;;;16.98;6.68;;;24.30;27.90;;;;;;4991424;28;20062;-77
2021/03/30 13:04:57;;;;;;;16.85;7.78;;;24.60;28.20;;;;;;4990551;28;20070;-77